createdAt,value
2022-08-14T00:01:46.267Z,5.70
2022-08-14T00:04:34.666Z,5.83
2022-08-14T00:07:05.999Z,5.90
2022-08-14T00:09:34.073Z,6.00
2022-08-14T00:12:23.906Z,5.93
2022-08-14T00:14:54.846Z,5.82
2022-08-14T00:17:22.225Z,5.90
2022-08-14T00:19:49.321Z,6.28
2022-08-14T00:22:44.151Z,6.50
2022-08-14T00:25:08.466Z,5.77
2022-08-14T00:27:38.052Z,6.10
2022-08-14T00:30:07.725Z,5.82
2022-08-14T00:32:52.106Z,6.55
2022-08-14T00:35:22.928Z,6.20
2022-08-14T00:38:10.048Z,6.45
2022-08-14T00:40:37.233Z,6.90
2022-08-14T00:43:04.935Z,6.30
2022-08-14T00:45:32.613Z,6.10
2022-08-14T00:47:59.982Z,6.50
2022-08-14T00:50:30.980Z,6.50
2022-08-14T00:53:00.050Z,6.35
2022-08-14T00:55:27.968Z,6.82
2022-08-14T00:58:17.752Z,7.00
2022-08-14T01:00:50.918Z,6.50
2022-08-14T01:03:20.027Z,6.47
2022-08-14T01:05:51.969Z,6.63
2022-08-14T01:08:52.361Z,6.80
2022-08-14T01:11:08.086Z,6.40
2022-08-14T01:13:43.048Z,6.88
2022-08-14T01:16:15.550Z,6.63
2022-08-14T01:19:06.794Z,6.80
2022-08-14T01:21:38.675Z,7.05
2022-08-14T01:24:15.271Z,7.00
2022-08-14T01:26:53.293Z,6.60
2022-08-14T01:29:28.065Z,6.93
2022-08-14T01:32:10.561Z,7.45
2022-08-14T01:35:21.221Z,7.03
2022-08-14T01:37:25.506Z,6.90
2022-08-14T01:39:54.501Z,6.60
2022-08-14T01:42:44.359Z,6.82
2022-08-14T01:45:12.846Z,7.10
2022-08-14T01:47:45.114Z,7.07
2022-08-14T01:50:12.253Z,6.70
2022-08-14T01:52:59.009Z,7.10
2022-08-14T01:55:32.621Z,6.73
2022-08-14T01:58:19.045Z,6.80
2022-08-14T02:00:55.369Z,7.25
2022-08-14T02:03:29.555Z,7.10
2022-08-14T02:05:59.879Z,7.15
2022-08-14T02:08:35.168Z,6.70
2022-08-14T02:11:22.762Z,7.17
2022-08-14T02:13:50.502Z,7.50
2022-08-14T02:16:22.542Z,7.00
2022-08-14T02:18:50.577Z,6.88
2022-08-14T02:21:19.506Z,7.35
2022-08-14T02:23:53.455Z,7.20
2022-08-14T02:26:29.328Z,7.05
2022-08-14T02:29:00.223Z,7.13
2022-08-14T02:31:42.471Z,7.13
2022-08-14T02:34:22.509Z,7.63
2022-08-14T02:37:05.430Z,7.27
2022-08-14T02:39:35.931Z,7.32
2022-08-14T02:42:04.939Z,7.75
2022-08-14T02:44:32.033Z,7.50
2022-08-14T02:47:15.105Z,8.07
2022-08-14T02:49:46.471Z,7.65
2022-08-14T02:52:56.526Z,8.33
2022-08-14T02:55:09.501Z,8.50
2022-08-14T02:57:39.825Z,8.23
2022-08-14T03:00:10.001Z,8.80
2022-08-14T03:02:56.408Z,8.32
2022-08-14T03:05:24.719Z,8.18
2022-08-14T03:07:52.956Z,8.40
2022-08-14T03:10:27.852Z,8.25
2022-08-14T03:13:00.693Z,8.73
2022-08-14T03:15:27.971Z,8.40
2022-08-14T03:17:56.917Z,9.02
2022-08-14T03:20:28.701Z,8.45
2022-08-14T03:22:59.397Z,9.20
2022-08-14T03:25:28.319Z,8.53
2022-08-14T03:28:02.605Z,8.10
2022-08-14T03:30:38.970Z,8.43
2022-08-14T03:33:08.894Z,8.30
2022-08-14T03:35:39.952Z,9.20
2022-08-14T03:39:13.081Z,8.65
2022-08-14T03:40:57.628Z,7.88
2022-08-14T03:43:28.354Z,8.32
2022-08-14T03:46:00.397Z,8.23
2022-08-14T03:48:31.161Z,8.60
2022-08-14T03:50:59.666Z,8.38
2022-08-14T03:53:28.701Z,8.52
2022-08-14T03:55:58.884Z,8.50
2022-08-14T03:58:36.292Z,8.10
2022-08-14T04:01:06.556Z,8.23
2022-08-14T04:03:37.246Z,8.13
2022-08-14T04:06:05.358Z,8.98
2022-08-14T04:08:36.064Z,9.15
2022-08-14T04:11:07.943Z,8.73
2022-08-14T04:13:39.303Z,9.40
2022-08-14T04:16:12.399Z,9.35
2022-08-14T04:18:42.308Z,9.63
2022-08-14T04:21:10.333Z,10.00
2022-08-14T04:23:39.755Z,9.90
2022-08-14T04:26:14.634Z,11.05
2022-08-14T04:29:01.945Z,9.93
2022-08-14T04:32:57.751Z,10.57
2022-08-14T04:34:28.242Z,10.38
2022-08-14T04:37:22.401Z,9.32
2022-08-14T04:40:12.054Z,9.38
2022-08-14T04:42:59.098Z,9.80
2022-08-14T04:45:36.258Z,9.77
2022-08-14T04:48:13.495Z,8.30
2022-08-14T04:50:45.499Z,8.63
2022-08-14T04:53:23.061Z,8.63
2022-08-14T04:55:53.350Z,9.25
2022-08-14T04:58:32.421Z,9.20
2022-08-14T05:01:00.640Z,8.80
2022-08-14T05:03:29.054Z,9.77
2022-08-14T05:05:57.227Z,10.10
2022-08-14T05:08:31.896Z,9.98
2022-08-14T05:11:13.228Z,10.23
2022-08-14T05:14:34.626Z,10.27
2022-08-14T05:16:30.924Z,9.95
2022-08-14T05:19:18.784Z,9.95
2022-08-14T05:22:00.102Z,8.98
2022-08-14T05:24:28.984Z,8.38
2022-08-14T05:26:56.645Z,7.95
2022-08-14T05:29:23.819Z,8.30
2022-08-14T05:31:56.030Z,8.27
2022-08-14T05:34:28.762Z,8.07
2022-08-14T05:37:01.970Z,7.80
2022-08-14T05:39:30.263Z,8.57
2022-08-14T05:41:58.944Z,9.23
2022-08-14T05:44:30.154Z,9.13
2022-08-14T05:46:58.535Z,8.47
2022-08-14T05:49:33.358Z,9.27
2022-08-14T05:52:02.338Z,8.98
2022-08-14T05:54:35.455Z,9.10
2022-08-14T05:57:03.218Z,10.10
2022-08-14T05:59:38.646Z,9.90
2022-08-14T06:02:07.555Z,9.55
2022-08-14T06:04:37.323Z,10.18
2022-08-14T06:07:04.206Z,10.23
2022-08-14T06:09:35.948Z,9.90
2022-08-14T06:12:09.335Z,10.00
2022-08-14T06:14:36.872Z,9.80
2022-08-14T06:17:04.786Z,9.85
2022-08-14T06:19:32.036Z,9.73
2022-08-14T06:21:59.735Z,9.70
2022-08-14T06:24:27.541Z,9.40
2022-08-14T06:27:03.776Z,9.40
2022-08-14T06:29:34.759Z,9.68
2022-08-14T06:32:36.820Z,9.15
2022-08-14T06:35:09.702Z,9.20
2022-08-14T06:37:53.954Z,10.25
2022-08-14T06:40:27.664Z,15.30
2022-08-14T06:42:56.488Z,19.15
2022-08-14T06:45:26.079Z,12.60
2022-08-14T06:47:55.503Z,11.85
2022-08-14T06:50:28.567Z,11.50
2022-08-14T06:52:57.433Z,21.90
2022-08-14T06:55:28.090Z,8.23
2022-08-14T06:57:56.513Z,7.68
2022-08-14T07:00:30.859Z,10.20
2022-08-14T07:03:19.101Z,6.75
2022-08-14T07:05:55.293Z,9.38
2022-08-14T07:08:31.868Z,7.05
2022-08-14T07:11:00.754Z,7.07
2022-08-14T07:13:28.407Z,6.70
2022-08-14T07:15:58.393Z,8.52
2022-08-14T07:18:28.222Z,9.05
2022-08-14T07:20:56.558Z,6.47
2022-08-14T07:23:24.187Z,6.68
2022-08-14T07:25:54.865Z,6.25
2022-08-14T07:28:26.488Z,6.28
2022-08-14T07:30:57.663Z,6.70
2022-08-14T07:33:35.608Z,6.70
2022-08-14T07:36:25.409Z,6.40
2022-08-14T07:38:52.705Z,5.95
2022-08-14T07:41:19.770Z,6.15
2022-08-14T07:43:55.897Z,5.82
2022-08-14T07:46:28.395Z,6.32
2022-08-14T07:48:56.836Z,5.95
2022-08-14T07:51:24.213Z,5.75
2022-08-14T07:53:56.901Z,5.90
2022-08-14T07:56:47.739Z,5.72
2022-08-14T07:59:11.749Z,6.50
2022-08-14T08:01:40.135Z,6.40
2022-08-14T08:04:24.950Z,6.30
2022-08-14T08:06:52.712Z,6.13
2022-08-14T08:09:22.096Z,5.85
2022-08-14T08:11:54.631Z,5.75
2022-08-14T08:14:25.559Z,6.05
2022-08-14T08:16:56.564Z,5.68
2022-08-14T08:19:24.904Z,6.20
2022-08-14T08:21:52.604Z,5.63
2022-08-14T08:24:21.046Z,5.85
2022-08-14T08:26:50.732Z,5.68
2022-08-14T08:29:22.407Z,5.60
2022-08-14T08:31:55.868Z,5.70
2022-08-14T08:34:23.766Z,5.20
2022-08-14T08:36:52.520Z,5.43
2022-08-14T08:39:22.583Z,5.32
2022-08-14T08:41:53.297Z,5.15
2022-08-14T08:44:31.977Z,5.57
2022-08-14T08:47:05.167Z,5.57
2022-08-14T08:49:37.159Z,5.50
2022-08-14T08:52:15.348Z,5.20
2022-08-14T08:54:54.729Z,5.22
2022-08-14T08:57:21.947Z,4.50
2022-08-14T08:59:54.647Z,5.18
2022-08-14T09:02:22.705Z,4.10
2022-08-14T09:05:01.548Z,4.47
2022-08-14T09:07:28.681Z,4.20
2022-08-14T09:09:59.461Z,3.77
2022-08-14T09:12:31.791Z,4.10
2022-08-14T09:15:01.752Z,3.90
2022-08-14T09:17:28.940Z,4.30
2022-08-14T09:19:56.407Z,4.22
2022-08-14T09:22:36.101Z,3.90
2022-08-14T09:25:11.447Z,4.25
2022-08-14T09:27:42.283Z,4.20
2022-08-14T09:30:12.641Z,3.85
2022-08-14T09:33:11.721Z,3.97
2022-08-14T09:35:43.094Z,3.85
2022-08-14T09:38:25.625Z,3.70
2022-08-14T09:41:23.583Z,3.72
2022-08-14T09:44:00.197Z,3.60
2022-08-14T09:46:34.377Z,3.95
2022-08-14T09:49:04.314Z,3.92
2022-08-14T09:51:44.680Z,3.60
2022-08-14T09:54:23.335Z,3.53
2022-08-14T09:56:59.495Z,4.00
2022-08-14T09:59:28.409Z,3.70
2022-08-14T10:02:01.967Z,3.80
2022-08-14T10:04:35.681Z,3.50
2022-08-14T10:07:05.469Z,3.47
2022-08-14T10:09:34.583Z,3.73
2022-08-14T10:12:04.415Z,3.85
2022-08-14T10:14:34.898Z,3.53
2022-08-14T10:17:05.967Z,4.18
2022-08-14T10:19:35.609Z,3.50
2022-08-14T10:23:14.443Z,3.33
2022-08-14T10:24:55.940Z,3.80
2022-08-14T10:27:24.277Z,3.50
2022-08-14T10:29:54.928Z,3.83
2022-08-14T10:32:29.202Z,3.90
2022-08-14T10:35:13.711Z,4.90
2022-08-14T10:37:44.384Z,3.50
2022-08-14T10:40:38.432Z,3.95
2022-08-14T10:42:59.994Z,3.53
2022-08-14T10:45:34.056Z,3.92
2022-08-14T10:48:07.801Z,3.30
2022-08-14T10:50:38.859Z,3.33
2022-08-14T10:53:08.027Z,3.78
2022-08-14T10:55:39.366Z,3.90
2022-08-14T10:58:13.996Z,4.00
2022-08-14T11:00:47.294Z,5.25
2022-08-14T11:03:20.006Z,4.20
2022-08-14T11:05:55.865Z,3.92
2022-08-14T11:08:31.677Z,3.80
2022-08-14T11:11:01.477Z,4.00
2022-08-14T11:13:30.123Z,3.97
2022-08-14T11:16:00.627Z,4.15
2022-08-14T11:18:32.490Z,3.90
2022-08-14T11:21:08.086Z,3.60
2022-08-14T11:23:39.576Z,3.83
2022-08-14T11:26:10.478Z,3.90
2022-08-14T11:28:47.804Z,3.72
2022-08-14T11:31:18.441Z,4.32
2022-08-14T11:33:49.232Z,4.10
2022-08-14T11:36:18.173Z,4.17
2022-08-14T11:38:47.148Z,4.07
2022-08-14T11:41:17.569Z,4.05
2022-08-14T11:43:55.937Z,4.15
2022-08-14T11:46:30.601Z,3.83
2022-08-14T11:49:06.495Z,4.00
2022-08-14T11:51:35.970Z,4.20
2022-08-14T11:54:19.866Z,4.28
2022-08-14T11:56:51.279Z,3.80
2022-08-14T11:59:19.651Z,3.97
2022-08-14T12:01:54.881Z,3.92
2022-08-14T12:04:32.361Z,4.00
2022-08-14T12:07:01.268Z,4.45
2022-08-14T12:09:31.808Z,4.13
2022-08-14T12:11:59.001Z,3.88
2022-08-14T12:14:30.277Z,4.00
2022-08-14T12:16:59.610Z,4.15
2022-08-14T12:19:33.663Z,4.10
2022-08-14T12:22:02.503Z,4.10
2022-08-14T12:24:36.110Z,4.13
2022-08-14T12:27:04.248Z,4.00
2022-08-14T12:29:31.830Z,4.00
2022-08-14T12:32:08.932Z,3.42
2022-08-14T12:34:45.209Z,3.77
2022-08-14T12:37:12.672Z,3.75
2022-08-14T12:39:40.820Z,4.03
2022-08-14T12:42:08.500Z,3.70
2022-08-14T12:44:40.045Z,4.03
2022-08-14T12:47:13.400Z,4.30
2022-08-14T12:49:58.382Z,4.30
2022-08-14T12:52:41.742Z,4.10
2022-08-14T12:55:21.044Z,4.00
2022-08-14T12:57:49.280Z,3.92
2022-08-14T13:00:22.779Z,3.80
2022-08-14T13:02:55.356Z,3.60
2022-08-14T13:05:24.417Z,3.50
2022-08-14T13:07:57.103Z,3.70
2022-08-14T13:10:46.909Z,3.83
2022-08-14T13:13:16.204Z,3.92
2022-08-14T13:15:45.478Z,4.00
2022-08-14T13:18:14.640Z,4.07
2022-08-14T13:20:49.802Z,3.60
2022-08-14T13:23:24.602Z,3.63
2022-08-14T13:25:58.953Z,3.40
2022-08-14T13:28:32.739Z,3.53
2022-08-14T13:31:04.446Z,3.13
2022-08-14T13:33:40.606Z,3.30
2022-08-14T13:36:08.484Z,3.40
2022-08-14T13:38:35.815Z,3.28
2022-08-14T13:41:03.167Z,3.47
2022-08-14T13:43:31.681Z,3.28
2022-08-14T13:46:04.244Z,3.25
2022-08-14T13:48:35.962Z,3.40
2022-08-14T13:51:07.841Z,3.30
2022-08-14T13:53:46.997Z,3.38
2022-08-14T13:56:36.155Z,3.42
2022-08-14T13:59:04.399Z,3.20
2022-08-14T14:01:39.174Z,3.00
2022-08-14T14:04:18.943Z,3.13
2022-08-14T14:06:47.960Z,2.83
2022-08-14T14:09:16.383Z,3.20
2022-08-14T14:11:44.322Z,3.10
2022-08-14T14:14:44.805Z,3.38
2022-08-14T14:16:59.319Z,3.03
2022-08-14T14:19:29.562Z,3.00
2022-08-14T14:21:57.358Z,3.28
2022-08-14T14:24:24.854Z,3.38
2022-08-14T14:27:23.724Z,2.90
2022-08-14T14:29:51.525Z,3.40
2022-08-14T14:32:31.964Z,3.50
2022-08-14T14:35:02.527Z,3.35
2022-08-14T14:37:31.047Z,3.30
2022-08-14T14:40:52.781Z,3.10
2022-08-14T14:42:48.782Z,3.20
2022-08-14T14:45:21.225Z,3.07
2022-08-14T14:47:51.539Z,3.25
2022-08-14T14:50:26.514Z,3.20
2022-08-14T14:53:12.217Z,3.15
2022-08-14T14:55:54.354Z,3.05
2022-08-14T14:58:30.529Z,2.80
2022-08-14T15:01:00.450Z,3.00
2022-08-14T15:03:28.797Z,3.00
2022-08-14T15:05:58.089Z,3.15
2022-08-14T15:08:56.500Z,2.80
2022-08-14T15:11:13.876Z,3.00
2022-08-14T15:13:43.094Z,3.00
2022-08-14T15:16:20.125Z,3.10
2022-08-14T15:18:49.262Z,3.10
2022-08-14T15:21:16.061Z,3.22
2022-08-14T15:23:44.171Z,2.90
2022-08-14T15:26:24.230Z,3.15
2022-08-14T15:29:02.776Z,3.00
2022-08-14T15:31:31.762Z,3.07
2022-08-14T15:34:40.998Z,3.23
2022-08-14T15:37:02.286Z,2.90
2022-08-14T15:39:33.988Z,3.33
2022-08-14T15:42:04.249Z,3.08
2022-08-14T15:44:50.768Z,3.40
2022-08-14T15:47:27.777Z,3.45
2022-08-14T15:49:59.058Z,3.10
2022-08-14T15:52:33.023Z,3.17
2022-08-14T15:55:12.962Z,3.38
2022-08-14T15:58:02.145Z,3.15
2022-08-14T16:00:49.694Z,3.40
2022-08-14T16:03:27.206Z,3.50
2022-08-14T16:06:02.658Z,3.22
2022-08-14T16:08:30.827Z,3.40
2022-08-14T16:10:59.681Z,3.70
2022-08-14T16:13:39.285Z,3.30
2022-08-14T16:16:49.786Z,3.38
2022-08-14T16:18:58.124Z,3.20
2022-08-14T16:21:31.363Z,3.40
2022-08-14T16:23:59.968Z,3.17
2022-08-14T16:26:29.171Z,3.50
2022-08-14T16:29:06.307Z,4.22
2022-08-14T16:31:36.597Z,4.40
2022-08-14T16:34:47.157Z,4.40
2022-08-14T16:36:53.139Z,3.65
2022-08-14T16:39:21.710Z,4.10
2022-08-14T16:41:51.241Z,4.10
2022-08-14T16:44:22.129Z,4.82
2022-08-14T16:47:01.238Z,19.55
2022-08-14T16:50:03.004Z,4.93
2022-08-14T16:52:25.472Z,4.63
2022-08-14T16:55:04.487Z,5.20
2022-08-14T16:57:32.695Z,4.20
2022-08-14T17:00:00.329Z,4.45
2022-08-14T17:02:36.218Z,4.10
2022-08-14T17:05:24.683Z,4.30
2022-08-14T17:08:32.995Z,4.30
2022-08-14T17:10:59.886Z,3.95
2022-08-14T17:13:59.427Z,4.18
2022-08-14T17:16:25.535Z,4.45
2022-08-14T17:19:00.973Z,4.30
2022-08-14T17:21:40.970Z,4.05
2022-08-14T17:24:55.881Z,3.80
2022-08-14T17:27:00.061Z,3.88
2022-08-14T17:29:31.833Z,4.20
2022-08-14T17:32:01.786Z,4.30
2022-08-14T17:34:46.806Z,3.90
2022-08-14T17:37:29.826Z,3.95
2022-08-14T17:40:01.475Z,4.40
2022-08-14T17:45:41.076Z,3.97
2022-08-14T17:48:10.021Z,4.07
2022-08-14T17:51:00.896Z,4.18
2022-08-14T17:53:30.532Z,4.03
2022-08-14T17:56:02.604Z,4.10
2022-08-14T17:58:42.097Z,3.80
2022-08-14T18:01:13.361Z,5.47
2022-08-14T18:03:50.387Z,5.27
2022-08-14T18:06:38.349Z,4.40
2022-08-14T18:09:10.605Z,4.40
2022-08-14T18:11:57.010Z,3.85
2022-08-14T18:14:31.466Z,4.50
2022-08-14T18:17:00.284Z,5.40
2022-08-14T18:19:29.453Z,6.53
2022-08-14T18:21:57.866Z,6.17
2022-08-14T18:24:29.907Z,4.45
2022-08-14T18:27:06.902Z,5.00
2022-08-14T18:29:42.460Z,4.75
2022-08-14T18:32:29.681Z,6.78
2022-08-14T18:34:59.569Z,4.70
2022-08-14T18:37:27.328Z,4.75
2022-08-14T18:40:02.830Z,4.70
2022-08-14T18:42:34.790Z,4.68
2022-08-14T18:45:12.981Z,4.80
2022-08-14T18:48:14.583Z,5.90
2022-08-14T18:50:31.879Z,6.50
2022-08-14T18:53:09.028Z,9.45
2022-08-14T18:55:37.650Z,5.55
2022-08-14T18:58:31.639Z,5.33
2022-08-14T19:01:04.564Z,5.20
2022-08-14T19:03:36.483Z,5.35
2022-08-14T19:06:06.173Z,5.20
2022-08-14T19:08:41.581Z,4.82
2022-08-14T19:11:32.159Z,8.20
2022-08-14T19:14:00.359Z,5.63
2022-08-14T19:16:34.185Z,5.10
2022-08-14T19:19:03.348Z,7.47
2022-08-14T19:21:31.906Z,9.57
2022-08-14T19:24:30.153Z,6.95
2022-08-14T19:27:19.180Z,6.05
2022-08-14T19:29:47.777Z,6.00
2022-08-14T19:32:36.682Z,7.78
2022-08-14T19:35:16.579Z,7.10
2022-08-14T19:37:47.450Z,6.85
2022-08-14T19:40:29.167Z,6.03
2022-08-14T19:42:58.486Z,5.93
2022-08-14T19:45:27.462Z,7.03
2022-08-14T19:47:54.641Z,7.00
2022-08-14T19:50:38.869Z,7.88
2022-08-14T19:53:11.106Z,7.40
2022-08-14T19:55:45.486Z,6.10
2022-08-14T19:58:13.452Z,5.97
2022-08-14T20:00:51.995Z,6.65
2022-08-14T20:03:24.227Z,8.45
2022-08-14T20:06:00.598Z,9.07
2022-08-14T20:11:00.151Z,6.72
2022-08-14T20:12:00.329Z,5.88
2022-08-14T20:14:20.506Z,6.55
2022-08-14T20:16:51.972Z,6.20
2022-08-14T20:19:23.165Z,6.03
2022-08-14T20:22:04.356Z,5.82
2022-08-14T20:24:41.180Z,6.47
2022-08-14T20:27:34.096Z,5.83
2022-08-14T20:30:28.942Z,5.72
2022-08-14T20:32:51.873Z,6.20
2022-08-14T20:35:22.509Z,6.00
2022-08-14T20:37:59.896Z,6.20
2022-08-14T20:40:28.337Z,5.82
2022-08-14T20:43:15.841Z,5.97
2022-08-14T20:45:46.360Z,5.90
2022-08-14T20:48:50.873Z,5.90
2022-08-14T20:51:36.778Z,5.85
2022-08-14T20:54:06.053Z,6.30
2022-08-14T20:56:34.517Z,5.78
2022-08-14T20:59:18.061Z,6.32
2022-08-14T21:01:55.150Z,6.43
2022-08-14T21:04:22.673Z,6.65
2022-08-14T21:07:26.163Z,6.68
2022-08-14T21:10:05.831Z,6.40
2022-08-14T21:12:34.776Z,6.40
2022-08-14T21:15:04.973Z,7.00
2022-08-14T21:17:37.839Z,5.93
2022-08-14T21:20:25.571Z,6.38
2022-08-14T21:22:53.883Z,6.28
2022-08-14T21:25:23.850Z,6.18
2022-08-14T21:27:57.296Z,6.13
2022-08-14T21:30:47.087Z,6.47
2022-08-14T21:33:13.300Z,7.10
2022-08-14T21:35:44.383Z,7.10
2022-08-14T21:38:18.027Z,6.75
2022-08-14T21:40:47.514Z,6.50
2022-08-14T21:43:18.867Z,6.30
2022-08-14T21:45:53.235Z,6.82
2022-08-14T21:48:21.439Z,6.45
2022-08-14T21:51:01.992Z,6.27
2022-08-14T21:53:58.108Z,6.65
2022-08-14T21:56:37.659Z,6.57
2022-08-14T21:59:09.027Z,6.60
2022-08-14T22:02:00.097Z,6.68
2022-08-14T22:04:32.837Z,6.60
2022-08-14T22:07:02.923Z,6.20
2022-08-14T22:09:36.242Z,6.70
2022-08-14T22:12:06.556Z,6.93
2022-08-14T22:14:43.685Z,6.60
2022-08-14T22:17:13.084Z,6.25
2022-08-14T22:19:54.308Z,6.45
2022-08-14T22:22:23.789Z,6.50
2022-08-14T22:24:59.814Z,7.30
2022-08-14T22:27:29.463Z,7.22
2022-08-14T22:29:58.765Z,7.30
2022-08-14T22:32:35.304Z,7.10
2022-08-14T22:35:15.547Z,7.28
2022-08-14T22:37:44.688Z,6.95
2022-08-14T22:40:43.119Z,7.47
2022-08-14T22:43:01.322Z,6.80
2022-08-14T22:45:36.424Z,7.00
2022-08-14T22:48:05.718Z,7.17
2022-08-14T22:50:48.911Z,7.47
2022-08-14T22:53:20.844Z,7.28
2022-08-14T22:55:48.808Z,7.22
2022-08-14T22:58:30.588Z,7.22
2022-08-14T23:01:04.667Z,6.82
2022-08-14T23:03:36.182Z,7.40
2022-08-14T23:06:04.347Z,7.22
2022-08-14T23:08:58.979Z,7.57
2022-08-14T23:11:27.799Z,8.68
2022-08-14T23:13:55.930Z,8.30
2022-08-14T23:16:28.091Z,8.90
2022-08-14T23:18:55.076Z,9.55
2022-08-14T23:21:24.551Z,8.65
2022-08-14T23:23:55.118Z,9.00
2022-08-14T23:26:49.271Z,8.48
2022-08-14T23:29:11.300Z,7.82
2022-08-14T23:31:38.554Z,7.75
2022-08-14T23:34:07.834Z,7.97
2022-08-14T23:36:37.587Z,7.70
2022-08-14T23:39:20.672Z,7.60
2022-08-14T23:41:52.702Z,8.63
2022-08-14T23:44:22.220Z,8.67
2022-08-14T23:46:52.673Z,8.55
2022-08-14T23:49:24.898Z,7.88
2022-08-14T23:51:59.670Z,8.57
2022-08-14T23:54:48.306Z,7.93
2022-08-14T23:57:19.305Z,8.00
2022-08-14T23:59:54.201Z,8.23
